Terminal Aerodrome Forecast
Issued by NWS

Home | Current Version | Previous Version | Text Only | Print | Product List | Glossary On
Versions: 1 2 3 4 5 6 7 8 9 10 11 12 13 14 15 16 17 18 19 20 21 22 23 24 25
000
FTUS41 KOKX 060829 AAA
TAFGON
TAF AMD
KGON 060829Z 0608/0706 VRB03KT 4SM BR SCT250
      TEMPO 0608/0610 1 1/2SM BR
     FM061200 VRB03KT 6SM HZ SCT250
     FM061400 20006KT P6SM FEW060 SCT250
     FM061800 19008KT P6SM SCT150 SCT200
     FM062300 18005KT P6SM BKN050
     FM070200 VRB03KT P6SM SCT060 BKN120=

USA.gov is the U.S. government's official web portal to all federal, state and local government web resources and services.